createdAt,value
2019-02-27T00:02:23.414Z,102822.74
2019-02-27T00:04:55.310Z,102828.08
2019-02-27T00:07:31.043Z,102828.25
2019-02-27T00:10:06.118Z,102829.89
2019-02-27T00:12:40.940Z,102826.98
2019-02-27T00:15:14.960Z,102828.89
2019-02-27T00:17:51.145Z,102828.63
2019-02-27T00:20:23.821Z,102821.51
2019-02-27T00:23:01.547Z,102830.03
2019-02-27T00:25:35.874Z,102828.62
2019-02-27T00:28:03.930Z,102824.28
2019-02-27T00:30:37.957Z,102826.34
2019-02-27T00:33:06.667Z,102815.39
2019-02-27T00:35:39.570Z,102815.77
2019-02-27T00:38:10.366Z,102813.61
2019-02-27T00:40:43.187Z,102811.59
2019-02-27T00:43:19.882Z,102812.61
2019-02-27T00:45:51.061Z,102808.50
2019-02-27T00:48:25.992Z,102811.41
2019-02-27T00:50:54.892Z,102803.68
2019-02-27T00:53:25.248Z,102803.80
2019-02-27T00:55:57.297Z,102798.45
2019-02-27T00:58:29.262Z,102788.92
2019-02-27T01:00:59.700Z,102794.78
2019-02-27T01:03:31.964Z,102791.47
2019-02-27T01:06:05.778Z,102795.02
2019-02-27T01:08:42.083Z,102785.11
2019-02-27T01:11:18.134Z,102782.31
2019-02-27T01:13:46.070Z,102784.22
2019-02-27T01:16:18.362Z,102783.84
2019-02-27T01:18:51.036Z,102779.39
2019-02-27T01:21:23.190Z,102775.96
2019-02-27T01:23:53.710Z,102780.26
2019-02-27T01:26:25.261Z,102780.03
2019-02-27T01:29:03.032Z,102780.52
2019-02-27T01:31:47.325Z,102775.70
2019-02-27T01:34:11.110Z,102773.68
2019-02-27T01:36:41.677Z,102767.67
2019-02-27T01:39:14.625Z,102769.08
2019-02-27T01:41:45.010Z,102770.31
2019-02-27T01:44:24.421Z,102770.45
2019-02-27T01:46:52.113Z,102764.57
2019-02-27T01:49:27.175Z,102758.19
2019-02-27T01:52:02.090Z,102758.80
2019-02-27T01:54:31.456Z,102752.97
2019-02-27T01:57:02.850Z,102751.44
2019-02-27T01:59:38.065Z,102753.92
2019-02-27T02:02:08.322Z,102759.51
2019-02-27T02:04:42.700Z,102755.16
2019-02-27T02:07:19.630Z,102757.91
2019-02-27T02:09:52.183Z,102753.59
2019-02-27T02:12:33.481Z,102752.05
2019-02-27T02:15:17.292Z,102748.98
2019-02-27T02:18:32.512Z,102743.17
2019-02-27T02:21:37.201Z,102735.16
2019-02-27T02:24:30.734Z,102718.30
2019-02-27T02:27:36.122Z,102718.30
2019-02-27T02:30:45.945Z,102710.43
2019-02-27T02:33:40.127Z,102699.02
2019-02-27T02:36:36.902Z,102699.01
2019-02-27T02:39:47.210Z,102692.67
2019-02-27T02:42:59.125Z,102699.01
2019-02-27T02:45:40.003Z,102695.45
2019-02-27T02:49:06.210Z,102694.19
2019-02-27T02:51:40.031Z,102688.33
2019-02-27T02:54:55.079Z,102678.27
2019-02-27T02:57:58.988Z,102674.35
2019-02-27T03:01:04.409Z,102664.21
2019-02-27T03:04:12.476Z,102660.39
2019-02-27T03:07:21.928Z,102657.70
2019-02-27T03:10:25.335Z,102650.53
2019-02-27T03:13:42.041Z,102648.38
2019-02-27T03:16:55.581Z,102640.79
2019-02-27T03:19:55.817Z,102636.14
2019-02-27T03:22:54.318Z,102631.82
2019-02-27T03:25:55.078Z,102626.64
2019-02-27T03:29:04.368Z,102623.47
2019-02-27T03:32:12.076Z,102621.69
2019-02-27T03:35:27.447Z,102617.14
2019-02-27T03:38:14.956Z,102622.47
2019-02-27T03:41:13.766Z,102619.42
2019-02-27T03:44:10.064Z,102617.93
2019-02-27T03:47:23.445Z,102622.73
2019-02-27T03:50:23.127Z,102620.41
2019-02-27T03:53:29.835Z,102615.86
2019-02-27T03:56:19.700Z,102611.89
2019-02-27T03:59:42.497Z,102619.70
2019-02-27T04:02:49.601Z,102609.44
2019-02-27T04:05:58.127Z,102609.75
2019-02-27T04:08:57.101Z,102603.91
2019-02-27T04:11:28.256Z,102604.00
2019-02-27T04:14:04.738Z,102607.16
2019-02-27T04:16:34.023Z,102612.97
2019-02-27T04:19:12.976Z,102612.97
2019-02-27T04:21:40.246Z,102610.69
2019-02-27T04:24:13.672Z,102608.00
2019-02-27T04:26:44.286Z,102607.98
2019-02-27T04:29:14.698Z,102607.98
2019-02-27T04:31:46.482Z,102610.52
2019-02-27T04:34:16.775Z,102603.66
2019-02-27T04:36:52.614Z,102606.70
2019-02-27T04:39:22.948Z,102611.48
2019-02-27T04:41:55.157Z,102613.00
2019-02-27T04:44:30.168Z,102606.52
2019-02-27T04:47:00.513Z,102595.13
2019-02-27T04:49:34.818Z,102598.36
2019-02-27T04:52:07.106Z,102597.09
2019-02-27T04:54:41.274Z,102590.00
2019-02-27T04:57:11.060Z,102590.00
2019-02-27T04:59:41.649Z,102597.66
2019-02-27T05:02:14.565Z,102601.72
2019-02-27T05:04:45.727Z,102598.94
2019-02-27T05:07:20.915Z,102599.33
2019-02-27T05:09:51.901Z,102599.95
2019-02-27T05:12:23.441Z,102593.98
2019-02-27T05:14:55.615Z,102583.73
2019-02-27T05:17:28.432Z,102583.73
2019-02-27T05:20:05.585Z,102583.73
2019-02-27T05:22:37.038Z,102575.98
2019-02-27T05:25:19.133Z,102580.41
2019-02-27T05:27:49.539Z,102582.37
2019-02-27T05:30:21.788Z,102573.91
2019-02-27T05:32:52.080Z,102573.91
2019-02-27T05:35:24.263Z,102581.59
2019-02-27T05:37:56.857Z,102580.06
2019-02-27T05:40:30.918Z,102581.59
2019-02-27T05:43:01.320Z,102578.04
2019-02-27T05:45:32.938Z,102582.84
2019-02-27T05:48:03.265Z,102583.32
2019-02-27T05:50:35.356Z,102584.48
2019-02-27T05:53:05.697Z,102580.78
2019-02-27T05:55:39.024Z,102579.50
2019-02-27T05:58:12.690Z,102572.87
2019-02-27T06:00:43.369Z,102572.87
2019-02-27T06:03:18.293Z,102571.83
2019-02-27T06:05:49.760Z,102565.27
2019-02-27T06:08:20.247Z,102568.54
2019-02-27T06:11:21.347Z,102565.47
2019-02-27T06:13:32.171Z,102568.73
2019-02-27T06:16:09.421Z,102563.66
2019-02-27T06:18:39.886Z,102564.92
2019-02-27T06:21:26.259Z,102561.38
2019-02-27T06:23:56.895Z,102566.72
2019-02-27T06:26:32.325Z,102565.34
2019-02-27T06:29:01.980Z,102559.50
2019-02-27T06:31:36.821Z,102567.64
2019-02-27T06:34:07.980Z,102562.74
2019-02-27T06:36:42.791Z,102570.09
2019-02-27T06:39:12.121Z,102569.61
2019-02-27T06:42:02.636Z,102570.16
2019-02-27T06:44:29.661Z,102570.07
2019-02-27T06:47:10.591Z,102565.02
2019-02-27T06:49:51.963Z,102558.83
2019-02-27T06:52:23.228Z,102547.78
2019-02-27T06:54:54.107Z,102558.67
2019-02-27T06:57:24.410Z,102552.49
2019-02-27T06:59:57.485Z,102549.99
2019-02-27T07:02:29.877Z,102544.17
2019-02-27T07:05:00.666Z,102543.67
2019-02-27T07:07:31.279Z,102550.74
2019-02-27T07:10:05.297Z,102544.23
2019-02-27T07:12:35.891Z,102542.33
2019-02-27T07:15:07.302Z,102536.45
2019-02-27T07:17:37.638Z,102537.44
2019-02-27T07:20:10.079Z,102542.20
2019-02-27T07:22:53.852Z,102538.74
2019-02-27T07:25:17.890Z,102532.22
2019-02-27T07:28:00.388Z,102534.70
2019-02-27T07:30:34.511Z,102526.17
2019-02-27T07:33:06.689Z,102526.17
2019-02-27T07:35:40.194Z,102517.76
2019-02-27T07:38:10.625Z,102516.62
2019-02-27T07:40:43.530Z,102517.48
2019-02-27T07:43:15.866Z,102527.23
2019-02-27T07:45:46.219Z,102535.24
2019-02-27T07:48:19.858Z,102537.92
2019-02-27T07:50:50.482Z,102540.25
2019-02-27T07:53:20.840Z,102546.66
2019-02-27T07:55:54.048Z,102544.31
2019-02-27T07:58:29.280Z,102543.48
2019-02-27T08:00:58.954Z,102543.48
2019-02-27T08:03:39.716Z,102539.34
2019-02-27T08:06:14.286Z,102536.16
2019-02-27T08:08:44.822Z,102542.49
2019-02-27T08:11:19.335Z,102541.18
2019-02-27T08:13:52.321Z,102536.59
2019-02-27T08:16:23.853Z,102535.88
2019-02-27T08:18:55.610Z,102518.27
2019-02-27T08:21:26.441Z,102491.91
2019-02-27T08:24:06.709Z,102473.70
2019-02-27T08:26:36.411Z,102461.18
2019-02-27T08:29:07.529Z,102457.88
2019-02-27T08:32:02.066Z,102448.84
2019-02-27T08:34:12.681Z,102453.66
2019-02-27T08:36:44.172Z,102458.91
2019-02-27T08:39:14.928Z,102459.13
2019-02-27T08:41:54.155Z,102449.77
2019-02-27T08:44:33.284Z,102450.42
2019-02-27T08:47:01.169Z,102435.88
2019-02-27T08:49:32.795Z,102429.09
2019-02-27T08:52:15.626Z,102433.59
2019-02-27T08:54:45.493Z,102423.39
2019-02-27T08:57:15.923Z,102422.86
2019-02-27T08:59:50.813Z,102419.64
2019-02-27T09:02:21.289Z,102426.70
2019-02-27T09:04:55.594Z,102433.83
2019-02-27T09:07:30.210Z,102433.84
2019-02-27T09:10:00.854Z,102421.64
2019-02-27T09:12:31.349Z,102426.16
2019-02-27T09:15:02.028Z,102410.84
2019-02-27T09:17:33.173Z,102411.72
2019-02-27T09:20:06.941Z,102408.68
2019-02-27T09:22:37.666Z,102411.52
2019-02-27T09:25:12.530Z,102406.14
2019-02-27T09:27:44.022Z,102402.56
2019-02-27T09:30:15.608Z,102402.38
2019-02-27T09:32:47.680Z,102396.83
2019-02-27T09:35:18.489Z,102387.14
2019-02-27T09:37:52.450Z,102391.02
2019-02-27T09:40:30.011Z,102384.05
2019-02-27T09:43:00.647Z,102384.05
2019-02-27T09:45:35.357Z,102378.47
2019-02-27T09:48:05.318Z,102375.77
2019-02-27T09:50:39.226Z,102382.22
2019-02-27T09:53:17.575Z,102380.06
2019-02-27T09:55:48.107Z,102377.92
2019-02-27T09:58:18.958Z,102379.13
2019-02-27T10:00:52.417Z,102377.39
2019-02-27T10:03:22.953Z,102371.64
2019-02-27T10:05:56.232Z,102377.18
2019-02-27T10:08:28.361Z,102373.72
2019-02-27T10:10:58.793Z,102372.09
2019-02-27T10:13:35.451Z,102372.89
2019-02-27T10:16:05.355Z,102358.58
2019-02-27T10:18:36.273Z,102360.42
2019-02-27T10:21:09.377Z,102359.84
2019-02-27T10:23:39.414Z,102350.89
2019-02-27T10:26:10.008Z,102337.92
2019-02-27T10:28:40.915Z,102338.84
2019-02-27T10:31:15.667Z,102328.51
2019-02-27T10:33:50.997Z,102328.51
2019-02-27T10:36:21.685Z,102324.80
2019-02-27T10:38:53.235Z,102331.05
2019-02-27T10:41:44.934Z,102325.11
2019-02-27T10:44:20.071Z,102320.56
2019-02-27T10:46:43.547Z,102311.63
2019-02-27T10:49:15.886Z,102314.19
2019-02-27T10:51:59.091Z,102311.67
2019-02-27T10:54:29.720Z,102313.78
2019-02-27T10:57:14.052Z,102323.12
2019-02-27T10:59:48.210Z,102338.66
2019-02-27T11:02:20.325Z,102341.97
2019-02-27T11:05:08.748Z,102349.83
2019-02-27T11:07:39.608Z,102345.44
2019-02-27T11:10:13.650Z,102343.50
2019-02-27T11:12:51.233Z,102344.73
2019-02-27T11:15:41.384Z,102338.45
2019-02-27T11:18:06.352Z,102338.45
2019-02-27T11:20:42.290Z,102340.10
2019-02-27T11:23:13.097Z,102328.57
2019-02-27T11:25:44.736Z,102327.36
2019-02-27T11:28:15.130Z,102327.77
2019-02-27T11:30:46.537Z,102323.52
2019-02-27T11:33:25.554Z,102320.41
2019-02-27T11:35:53.377Z,102316.45
2019-02-27T11:38:24.804Z,102315.42
2019-02-27T11:41:00.502Z,102319.67
2019-02-27T11:43:31.402Z,102311.45
2019-02-27T11:46:02.079Z,102309.41
2019-02-27T11:48:34.129Z,102305.69
2019-02-27T11:51:04.560Z,102303.59
2019-02-27T11:53:36.574Z,102298.40
2019-02-27T11:56:07.140Z,102286.89
2019-02-27T11:58:43.793Z,102282.36
2019-02-27T12:01:21.867Z,102278.13
2019-02-27T12:03:50.568Z,102279.45
2019-02-27T12:06:21.480Z,102275.09
2019-02-27T12:09:04.422Z,102264.71
2019-02-27T12:11:36.483Z,102251.52
2019-02-27T12:14:09.894Z,102251.52
2019-02-27T12:16:43.324Z,102245.59
2019-02-27T12:19:14.415Z,102234.41
2019-02-27T12:21:45.920Z,102237.05
2019-02-27T12:24:27.417Z,102222.41
2019-02-27T12:26:53.254Z,102220.41
2019-02-27T12:29:35.454Z,102208.84
2019-02-27T12:31:55.783Z,102204.19
2019-02-27T12:34:26.633Z,102197.77
2019-02-27T12:36:59.750Z,102193.96
2019-02-27T12:39:30.623Z,102190.19
2019-02-27T12:42:04.137Z,102185.95
2019-02-27T12:44:39.532Z,102185.14
2019-02-27T12:47:11.189Z,102181.80
2019-02-27T12:49:41.779Z,102171.08
2019-02-27T12:52:24.079Z,102168.13
2019-02-27T12:54:53.088Z,102164.30
2019-02-27T12:57:26.645Z,102162.59
2019-02-27T13:00:01.241Z,102160.88
2019-02-27T13:02:35.615Z,102155.73
2019-02-27T13:05:06.750Z,102147.55
2019-02-27T13:07:37.339Z,102140.28
2019-02-27T13:10:09.935Z,102139.05
2019-02-27T13:12:41.630Z,102130.02
2019-02-27T13:15:16.878Z,102129.61
2019-02-27T13:17:49.119Z,102128.45
2019-02-27T13:20:21.951Z,102124.21
2019-02-27T13:22:52.392Z,102122.56
2019-02-27T13:25:25.685Z,102121.31
2019-02-27T13:27:56.601Z,102113.16
2019-02-27T13:30:27.023Z,102108.48
2019-02-27T13:33:06.667Z,102097.64
2019-02-27T13:35:37.736Z,102100.34
2019-02-27T13:38:08.130Z,102090.81
2019-02-27T13:40:41.050Z,102088.22
2019-02-27T13:43:11.355Z,102084.32
2019-02-27T13:45:41.929Z,102076.11
2019-02-27T13:48:12.557Z,102072.73
2019-02-27T13:50:44.188Z,102066.25
2019-02-27T13:53:16.452Z,102068.47
2019-02-27T13:55:50.455Z,102059.38
2019-02-27T13:58:23.101Z,102057.25
2019-02-27T14:01:44.709Z,102049.50
2019-02-27T14:03:28.741Z,102047.78
2019-02-27T14:06:09.005Z,102051.22
2019-02-27T14:08:33.333Z,102047.31
2019-02-27T14:11:06.389Z,102039.87
2019-02-27T14:13:36.674Z,102034.17
2019-02-27T14:16:11.848Z,102037.19
2019-02-27T14:18:55.994Z,102024.66
2019-02-27T14:21:24.952Z,102015.98
2019-02-27T14:23:57.016Z,102010.31
2019-02-27T14:26:29.676Z,102006.41
2019-02-27T14:28:59.985Z,102001.17
2019-02-27T14:31:32.094Z,101990.31
2019-02-27T14:34:02.508Z,101990.36
2019-02-27T14:36:49.061Z,101989.52
2019-02-27T14:39:21.220Z,101987.30
2019-02-27T14:41:53.177Z,101986.52
2019-02-27T14:44:24.165Z,101986.05
2019-02-27T14:46:56.090Z,101979.13
2019-02-27T14:49:31.204Z,101978.67
2019-02-27T14:52:01.712Z,101973.47
2019-02-27T14:54:33.584Z,101969.48
2019-02-27T14:57:04.352Z,101974.62
2019-02-27T14:59:34.940Z,101967.70
2019-02-27T15:02:08.720Z,101967.30
2019-02-27T15:04:42.281Z,101962.14
2019-02-27T15:07:14.473Z,101955.65
2019-02-27T15:09:50.309Z,101956.02
2019-02-27T15:12:23.281Z,101956.48
2019-02-27T15:14:53.907Z,101950.36
2019-02-27T15:17:24.411Z,101953.38
2019-02-27T15:19:55.290Z,101952.92
2019-02-27T15:22:26.538Z,101947.26
2019-02-27T15:25:00.283Z,101949.34
2019-02-27T15:27:30.664Z,101943.97
2019-02-27T15:30:02.837Z,101945.58
2019-02-27T15:32:36.398Z,101934.30
2019-02-27T15:35:07.694Z,101933.00
2019-02-27T15:37:49.577Z,101934.62
2019-02-27T15:40:16.998Z,101927.61
2019-02-27T15:42:47.703Z,101916.28
2019-02-27T15:45:21.844Z,101917.53
2019-02-27T15:47:52.512Z,101903.42
2019-02-27T15:50:30.162Z,101899.00
2019-02-27T15:53:14.989Z,101894.75
2019-02-27T15:55:37.977Z,101892.09
2019-02-27T15:58:08.555Z,101890.18
2019-02-27T16:00:42.568Z,101880.40
2019-02-27T16:03:12.892Z,101882.92
2019-02-27T16:05:55.457Z,101871.20
2019-02-27T16:08:27.130Z,101870.31
2019-02-27T16:10:57.423Z,101865.39
2019-02-27T16:13:35.423Z,101859.50
2019-02-27T16:16:13.374Z,101854.95
2019-02-27T16:18:45.937Z,101859.31
2019-02-27T16:21:17.535Z,101866.59
2019-02-27T16:23:52.798Z,101862.11
2019-02-27T16:26:27.023Z,101858.09
2019-02-27T16:29:02.646Z,101847.25
2019-02-27T16:31:37.173Z,101848.76
2019-02-27T16:34:07.714Z,101846.22
2019-02-27T16:36:39.743Z,101846.50
2019-02-27T16:39:10.818Z,101849.53
2019-02-27T16:41:47.842Z,101845.84
2019-02-27T16:44:21.435Z,101844.34
2019-02-27T16:46:52.333Z,101847.28
2019-02-27T16:49:28.440Z,101831.36
2019-02-27T16:51:58.884Z,101831.36
2019-02-27T16:54:29.500Z,101835.67
2019-02-27T16:57:02.443Z,101837.41
2019-02-27T16:59:34.449Z,101835.44
2019-02-27T17:02:08.563Z,101830.82
2019-02-27T17:04:39.149Z,101832.98
2019-02-27T17:07:09.752Z,101829.53
2019-02-27T17:10:29.192Z,101828.17
2019-02-27T17:12:28.283Z,101828.17
2019-02-27T17:15:09.673Z,101824.43
2019-02-27T17:17:36.448Z,101822.45
2019-02-27T17:20:12.691Z,101824.91
2019-02-27T17:22:44.935Z,101822.11
2019-02-27T17:25:15.588Z,101823.20
2019-02-27T17:27:49.816Z,101818.84
2019-02-27T17:30:36.594Z,101820.78
2019-02-27T17:33:18.168Z,101815.59
2019-02-27T17:35:46.888Z,101816.16
2019-02-27T17:38:17.930Z,101809.17
2019-02-27T17:40:50.213Z,101809.11
2019-02-27T17:43:20.798Z,101801.75
2019-02-27T17:45:55.160Z,101810.59
2019-02-27T17:48:25.851Z,101811.16
2019-02-27T17:50:58.155Z,101813.16
2019-02-27T17:53:30.001Z,101801.84
2019-02-27T17:56:02.070Z,101796.83
2019-02-27T17:58:38.524Z,101796.36
2019-02-27T18:01:09.861Z,101795.95
2019-02-27T18:03:43.576Z,101795.55
2019-02-27T18:06:20.868Z,101792.50
2019-02-27T18:08:52.398Z,101778.88
2019-02-27T18:11:24.387Z,101778.88
2019-02-27T18:13:57.992Z,101780.52
2019-02-27T18:16:29.959Z,101781.52
2019-02-27T18:19:04.324Z,101778.31
2019-02-27T18:21:36.292Z,101779.08
2019-02-27T18:24:19.500Z,101780.42
2019-02-27T18:26:56.449Z,101777.06
2019-02-27T18:29:31.245Z,101771.05
2019-02-27T18:32:06.115Z,101775.66
2019-02-27T18:34:42.632Z,101774.18
2019-02-27T18:37:14.532Z,101773.90
2019-02-27T18:39:45.151Z,101776.11
2019-02-27T18:42:20.697Z,101771.80
2019-02-27T18:44:50.956Z,101770.59
2019-02-27T18:47:25.484Z,101768.50
2019-02-27T18:49:55.807Z,101769.86
2019-02-27T18:52:26.475Z,101761.66
2019-02-27T18:55:04.175Z,101760.43
2019-02-27T18:57:35.083Z,101757.40
2019-02-27T19:00:07.783Z,101756.97
2019-02-27T19:03:11.394Z,101752.89
2019-02-27T19:05:22.366Z,101749.70
2019-02-27T19:07:55.253Z,101740.61
2019-02-27T19:10:29.834Z,101740.29
2019-02-27T19:13:01.068Z,101739.25
2019-02-27T19:15:33.134Z,101738.90
2019-02-27T19:18:06.629Z,101740.29
2019-02-27T19:20:37.388Z,101742.34
2019-02-27T19:23:17.088Z,101737.44
2019-02-27T19:25:43.635Z,101730.41
2019-02-27T19:28:14.006Z,101732.85
2019-02-27T19:30:44.392Z,101733.81
2019-02-27T19:33:15.022Z,101724.39
2019-02-27T19:35:46.846Z,101723.06
2019-02-27T19:38:17.467Z,101720.09
2019-02-27T19:40:52.138Z,101722.72
2019-02-27T19:43:24.046Z,101719.57
2019-02-27T19:45:56.031Z,101720.85
2019-02-27T19:48:30.585Z,101718.73
2019-02-27T19:51:00.907Z,101719.63
2019-02-27T19:53:34.346Z,101720.87
2019-02-27T19:56:04.823Z,101714.95
2019-02-27T19:58:35.841Z,101713.80
2019-02-27T20:01:11.334Z,101714.02
2019-02-27T20:03:41.957Z,101718.45
2019-02-27T20:06:13.570Z,101710.75
2019-02-27T20:08:45.397Z,101710.36
2019-02-27T20:11:17.538Z,101712.56
2019-02-27T20:13:49.513Z,101705.27
2019-02-27T20:16:21.702Z,101704.73
2019-02-27T20:19:00.582Z,101705.63
2019-02-27T20:21:31.643Z,101703.67
2019-02-27T20:24:14.082Z,101705.48
2019-02-27T20:26:44.417Z,101701.69
2019-02-27T20:29:14.777Z,101697.92
2019-02-27T20:31:48.379Z,101697.18
2019-02-27T20:34:18.955Z,101699.51
2019-02-27T20:36:49.319Z,101700.97
2019-02-27T20:39:24.399Z,101697.90
2019-02-27T20:41:54.846Z,101700.33
2019-02-27T20:44:30.639Z,101690.72
2019-02-27T20:47:08.134Z,101690.80
2019-02-27T20:49:38.760Z,101685.41
2019-02-27T20:52:14.512Z,101690.73
2019-02-27T20:54:41.145Z,101681.77
2019-02-27T20:57:11.528Z,101683.91
2019-02-27T20:59:42.137Z,101675.91
2019-02-27T21:02:12.765Z,101672.68
2019-02-27T21:04:44.891Z,101672.36
2019-02-27T21:07:22.039Z,101672.36
2019-02-27T21:09:49.777Z,101670.47
2019-02-27T21:12:24.318Z,101669.14
2019-02-27T21:14:57.931Z,101672.09
2019-02-27T21:17:32.706Z,101665.95
2019-02-27T21:20:04.530Z,101671.56
2019-02-27T21:22:35.032Z,101676.24
2019-02-27T21:25:12.076Z,101674.66
2019-02-27T21:27:52.551Z,101680.09
2019-02-27T21:30:19.103Z,101672.80
2019-02-27T21:32:50.960Z,101675.91
2019-02-27T21:35:28.619Z,101672.11
2019-02-27T21:37:57.594Z,101672.66
2019-02-27T21:40:33.456Z,101672.41
2019-02-27T21:43:13.713Z,101673.08
2019-02-27T21:45:54.412Z,101673.59
2019-02-27T21:48:26.715Z,101669.62
2019-02-27T21:50:57.127Z,101674.89
2019-02-27T21:53:30.087Z,101671.99
2019-02-27T21:56:07.196Z,101666.24
2019-02-27T21:58:37.948Z,101671.20
2019-02-27T22:01:08.248Z,101670.71
2019-02-27T22:03:50.095Z,101676.41
2019-02-27T22:06:10.910Z,101672.67
2019-02-27T22:08:42.722Z,101663.41
2019-02-27T22:11:14.908Z,101663.41
2019-02-27T22:13:46.940Z,101673.68
2019-02-27T22:16:17.462Z,101668.44
2019-02-27T22:18:51.152Z,101674.95
2019-02-27T22:21:22.790Z,101665.77
2019-02-27T22:23:55.119Z,101668.72
2019-02-27T22:26:25.519Z,101664.73
2019-02-27T22:28:56.120Z,101663.84
2019-02-27T22:31:27.777Z,101661.34
2019-02-27T22:33:59.395Z,101664.14
2019-02-27T22:36:29.800Z,101664.14
2019-02-27T22:39:01.185Z,101656.52
2019-02-27T22:41:35.171Z,101645.64
2019-02-27T22:44:05.721Z,101645.64
2019-02-27T22:46:36.101Z,101649.94
2019-02-27T22:49:06.703Z,101647.86
2019-02-27T22:51:38.356Z,101646.39
2019-02-27T22:54:08.947Z,101645.51
2019-02-27T22:56:40.257Z,101647.32
2019-02-27T22:59:15.393Z,101647.12
2019-02-27T23:01:50.948Z,101641.86
2019-02-27T23:04:21.727Z,101642.97
2019-02-27T23:06:55.904Z,101631.16
2019-02-27T23:09:26.572Z,101626.92
2019-02-27T23:11:57.149Z,101628.90
2019-02-27T23:14:27.804Z,101625.55
2019-02-27T23:17:00.630Z,101625.53
2019-02-27T23:19:32.912Z,101624.19
2019-02-27T23:22:05.155Z,101620.77
2019-02-27T23:24:35.479Z,101626.39
2019-02-27T23:27:05.825Z,101627.88
2019-02-27T23:29:39.879Z,101635.75
2019-02-27T23:32:10.500Z,101637.09
2019-02-27T23:34:41.743Z,101633.89
2019-02-27T23:37:12.897Z,101636.38
2019-02-27T23:39:44.232Z,101631.48
2019-02-27T23:42:14.849Z,101627.94
2019-02-27T23:44:45.560Z,101628.59
2019-02-27T23:47:19.406Z,101619.66
2019-02-27T23:49:49.737Z,101614.78
2019-02-27T23:52:22.382Z,101615.50
2019-02-27T23:54:53.339Z,101614.80
2019-02-27T23:57:25.324Z,101613.13
2019-02-27T23:59:56.449Z,101616.08
